• Join FlightAware (Why Join?)
  • Login
  • US Flag 
04:46PM EDT


 

Airport Tracker/Info


-or-


 

Live Flight TrackerFlight Track Log ✈ GSB305 ✈ 28-May-2013 ✈ WBGG / KCH - WMKK / KUL

Flight Track Log - Related Links

Times and Time Zones

All times are in EDT time to prevent confusion due to time zone crossing. See the GSB305 flight status page for this flight to view local times or setup timezone preferences in your user account.

Time Position Orientation Groundspeed Altitude Reporting Facility
EDT Latitude Longitude Course Direction KTS MPH feet Rate Location/Type
12:03PM 2.2380 107.5400 285° West 469 540 30,000  Level FlightAware
12:03PM 2.2560 107.4720 285° West 469 540 30,000  Level FlightAware
12:04PM 2.2790 107.3860 285° West 469 540 30,000  Level FlightAware
12:05PM 2.2960 107.3220 285° West 469 540 30,000  Level FlightAware
12:06PM 2.3190 107.2350 285° West 469 540 30,000  Level FlightAware
12:06PM 2.3370 107.1710 286° West 469 540 30,000  Level FlightAware
12:07PM 2.3940 106.9720 286° West 467 537 30,000  Level FlightAware
12:08PM 2.4170 106.8900 286° West 467 537 30,000  Level FlightAware
12:09PM 2.4380 106.8120 285° West 468 539 30,000  Level FlightAware
12:10PM 2.4660 106.7130 286° West 469 540 30,000  Level FlightAware
12:10PM 2.4890 106.6250 285° West 469 540 30,000  Level FlightAware
12:11PM 2.5150 106.5320 286° West 471 542 30,000  Level FlightAware
12:12PM 2.5500 106.4020 285° West 473 544 30,000  Level FlightAware
12:13PM 2.5730 106.3100 284° West 471 542 30,000  Level FlightAware
12:13PM 2.5990 106.2160 285° West 471 542 30,000  Level FlightAware
12:14PM 2.6250 106.1250 286° West 474 545 30,000  Level FlightAware
12:15PM 2.6510 106.0370 286° West 475 547 30,000  Level FlightAware
12:15PM 2.6760 105.9500 286° West 475 547 30,000  Level FlightAware
12:16PM 2.7020 105.8570 286° West 473 544 30,000  Level FlightAware
12:17PM 2.7250 105.7760 286° West 474 545 30,000  Level FlightAware
12:18PM 2.7520 105.6810 286° West 473 544 30,000  Level FlightAware
12:18PM 2.7730 105.5980 284° West 473 544 30,000  Level FlightAware
12:19PM 2.7980 105.5050 285° West 472 543 30,000  Level FlightAware
12:20PM 2.8220 105.4200 286° West 473 544 30,000  Level FlightAware
12:20PM 2.8480 105.3280 286° West 474 545 30,000  Level FlightAware
12:21PM 2.8730 105.2380 286° West 473 544 30,000  Level FlightAware
12:22PM 2.8970 105.1460 285° West 471 542 30,000  Level FlightAware
12:22PM 2.9180 105.0680 285° West 470 541 30,000  Level FlightAware
12:23PM 2.9400 104.9810 284° West 469 540 30,000  Level FlightAware
12:24PM 2.9660 104.8910 286° West 467 537 30,000  Level FlightAware
12:25PM 2.9930 104.7950 286° West 468 539 30,000  Level FlightAware
12:25PM 3.0170 104.7080 285° West 467 537 30,000  Level FlightAware
12:26PM 3.0390 104.6250 285° West 466 536 30,000  Level FlightAware
12:27PM 3.0620 104.5370 285° West 466 536 30,000  Level FlightAware
12:27PM 3.0860 104.4500 285° West 466 536 30,000  Level FlightAware
12:28PM 3.1100 104.3630 285° West 466 536 30,000  Level FlightAware
12:29PM 3.1420 104.2480 286° West 469 540 30,000  Level FlightAware
12:30PM 3.1630 104.1470 282° West 470 541 30,000  Level FlightAware
12:31PM 3.1610 104.0320 269° West 469 540 30,000  Level FlightAware
12:32PM 3.1570 103.9310 268° West 468 539 30,000  Level FlightAware
12:33PM 3.1530 103.8100 268° West 467 537 30,000  Level FlightAware
12:33PM 3.1510 103.7350 268° West 465 535 30,000  Level FlightAware
12:34PM 3.1470 103.6350 268° West 462 532 30,000  Level FlightAware
12:35PM 3.1430 103.5440 267° West 461 531 30,000  Level FlightAware
12:35PM 3.1330 103.4520 264° West 462 532 30,000  Level FlightAware
12:36PM 3.1210 103.3640 262° West 463 533 30,000  Level FlightAware
12:37PM 3.1100 103.2800 263° West 461 531 30,000  Level FlightAware
12:37PM 3.0980 103.1870 263° West 462 532 30,000  Level FlightAware
12:38PM 3.0880 103.1040 263° West 463 533 30,000  Level FlightAware
12:39PM 3.0760 103.0180 262° West 465 535 30,000 -180 Level FlightAware
12:40PM 3.0630 102.9170 263° West 465 535 29,800 -1,500 Descending FlightAware
12:40PM 3.0510 102.8330 262° West 467 537 27,900 -2,820 Descending FlightAware
12:41PM 3.0430 102.7590 264° West 458 527 26,400 -2,700 Descending FlightAware
12:41PM 3.0430 102.6650 270° West 451 519 24,300 -2,580 Descending FlightAware
12:42PM 3.0360 102.5620 266° West 438 504 22,100 -3,180 Descending FlightAware
12:43PM 2.9990 102.4720 248° West 443 510 19,200 -2,700 Descending FlightAware
12:44PM 2.9320 102.3970 228° Southwest 441 507 17,800 -840 Descending FlightAware
12:45PM 2.8750 102.3380 226° Southwest 441 507 17,800 -1,740 Level FlightAware
12:45PM 2.8270 102.2870 227° Southwest 371 427 15,400 -2,820 Descending FlightAware
12:46PM 2.7770 102.2360 226° Southwest 355 409 14,100 -2,100 Descending FlightAware
12:47PM 2.7290 102.1860 226° Southwest 334 384 12,400 -2,580 Descending FlightAware
12:48PM 2.6820 102.1340 228° Southwest 321 369 10,300 -2,760 Descending FlightAware
12:48PM 2.6610 102.1050 234° Southwest 314 361 9,200 -2,040 Descending FlightAware
12:49PM 2.6370 102.0690 236° Southwest 287 330 8,500 -1,260 Descending FlightAware
12:49PM 2.6180 102.0400 237° Southwest 264 304 8,000 -1,020 Descending FlightAware
12:49PM 2.5970 102.0100 235° Southwest 241 277 7,500 -1,020 Descending FlightAware
12:50PM 2.5840 101.9900 237° Southwest 237 273 7,100 -600 Descending FlightAware
12:50PM 2.5680 101.9650 237° Southwest 234 269 7,000 -1,200 Descending FlightAware
12:51PM 2.5410 101.9260 235° Southwest 208 239 5,700 -1,020 Descending FlightAware
12:52PM 2.5260 101.9030 237° Southwest 208 239 5,700 -1,140 Level FlightAware
12:53PM 2.5290 101.8240 319° Northwest 183 211 3,100 -1,260 Descending FlightAware
12:54PM 2.6912 101.7577 319° Northwest  Level Estimated
12:54PM 2.5450 101.8110 321° Northwest 182 209 3,100  Level FlightAware
12:54PM 2.5670 101.7960 326° Northwest 183 211 3,100 -240 Level FlightAware
12:55PM 2.5840 101.7850 327° Northwest 186 214 2,900 -780 Descending FlightAware
12:55PM 2.5960 101.7770 326° Northwest 186 214 2,600 -960 Descending FlightAware
12:55PM 2.6150 101.7640 326° Northwest 181 208 2,200 -900 Descending FlightAware
12:56PM 2.6320 101.7540 330° Northwest 152 175 1,800 -900 Descending FlightAware
12:56PM 2.6400 101.7480 323° Northwest 146 168 1,600 -720 Descending FlightAware
12:57PM 2.6550 101.7380 326° Northwest 145 167 1,300 -360 Descending FlightAware
12:57PM 2.6670 101.7300 326° Northwest 145 167 1,300  Level FlightAware
01:00PM 2.7456 101.7099 346° North  Level Estimated
01:01PM 2.7456 101.7099 236° Southwest  Level Estimated
01:02PM 2.7456 101.7099 236° Southwest  Level Estimated
01:03PM 2.7456 101.7099 236° Southwest  Level Estimated
01:04PM 2.7456 101.7099 236° Southwest  Level Estimated
01:05PM 2.7456 101.7099 236° Southwest  Level Estimated
01:06PM 2.7456 101.7099 236° Southwest  Level Estimated
01:07PM 2.7456 101.7099 236° Southwest  Level Estimated
01:08PM 2.7456 101.7099 236° Southwest  Level Estimated
01:09PM 2.7456 101.7099 236° Southwest  Level Estimated